createdAt,value
2019-01-28T00:00:22.237Z,3.70
2019-01-28T00:02:51.192Z,3.70
2019-01-28T00:05:19.915Z,3.70
2019-01-28T00:07:48.576Z,3.70
2019-01-28T00:10:17.677Z,3.70
2019-01-28T00:12:46.541Z,3.70
2019-01-28T00:15:15.274Z,3.70
2019-01-28T00:17:44.109Z,3.70
2019-01-28T00:20:12.862Z,3.70
2019-01-28T00:22:41.682Z,3.70
2019-01-28T00:25:10.883Z,3.70
2019-01-28T00:27:39.514Z,3.70
2019-01-28T00:30:11.670Z,3.70
2019-01-28T00:32:40.308Z,3.70
2019-01-28T00:35:10.151Z,3.70
2019-01-28T00:37:38.907Z,3.70
2019-01-28T00:40:10.157Z,3.60
2019-01-28T00:42:38.839Z,3.60
2019-01-28T00:45:12.643Z,3.60
2019-01-28T00:47:41.241Z,3.60
2019-01-28T00:50:12.414Z,3.70
2019-01-28T00:52:41.364Z,3.60
2019-01-28T00:55:12.751Z,3.60
2019-01-28T00:57:43.111Z,3.60
2019-01-28T01:00:17.590Z,3.50
2019-01-28T01:02:46.334Z,3.60
2019-01-28T01:05:15.121Z,3.60
2019-01-28T01:07:44.008Z,3.50
2019-01-28T01:10:13.218Z,3.50
2019-01-28T01:12:41.996Z,3.40
2019-01-28T01:15:15.825Z,3.40
2019-01-28T01:17:44.888Z,3.40
2019-01-28T01:20:16.442Z,3.40
2019-01-28T01:22:45.377Z,3.30
2019-01-28T01:25:14.961Z,3.30
2019-01-28T01:27:44.272Z,3.30
2019-01-28T01:30:15.818Z,3.30
2019-01-28T01:32:44.571Z,3.20
2019-01-28T01:35:13.860Z,3.30
2019-01-28T01:37:42.607Z,3.20
2019-01-28T01:40:16.056Z,3.10
2019-01-28T01:42:45.071Z,3.10
2019-01-28T01:45:18.443Z,3.10
2019-01-28T01:47:47.269Z,3.10
2019-01-28T01:50:16.013Z,3.10
2019-01-28T01:52:45.104Z,3.10
2019-01-28T01:55:14.685Z,3.10
2019-01-28T01:57:43.396Z,3.10
2019-01-28T02:00:14.642Z,3.10
2019-01-28T02:02:43.761Z,3.10
2019-01-28T02:05:12.730Z,3.10
2019-01-28T02:07:41.512Z,3.00
2019-01-28T02:10:12.785Z,3.00
2019-01-28T02:12:41.544Z,3.00
2019-01-28T02:15:13.251Z,3.00
2019-01-28T02:17:42.042Z,3.00
2019-01-28T02:20:12.029Z,3.00
2019-01-28T02:22:42.369Z,3.00
2019-01-28T02:25:13.367Z,2.90
2019-01-28T02:27:42.254Z,2.80
2019-01-28T02:30:15.847Z,2.80
2019-01-28T02:32:44.634Z,2.80
2019-01-28T02:35:13.627Z,2.80
2019-01-28T02:37:42.767Z,2.80
2019-01-28T02:40:16.758Z,2.80
2019-01-28T02:42:46.077Z,2.80
2019-01-28T02:45:15.977Z,2.80
2019-01-28T02:47:45.147Z,2.80
2019-01-28T02:50:16.007Z,2.70
2019-01-28T02:52:45.108Z,2.70
2019-01-28T02:55:14.841Z,2.70
2019-01-28T02:57:43.665Z,2.70
2019-01-28T03:00:15.844Z,2.60
2019-01-28T03:02:44.615Z,2.60
2019-01-28T03:05:14.475Z,2.60
2019-01-28T03:07:43.315Z,2.60
2019-01-28T03:10:17.986Z,2.60
2019-01-28T03:12:46.619Z,2.60
2019-01-28T03:15:16.539Z,2.60
2019-01-28T03:17:46.518Z,2.60
2019-01-28T03:20:17.108Z,2.50
2019-01-28T03:22:46.016Z,2.50
2019-01-28T03:25:17.005Z,2.50
2019-01-28T03:27:46.443Z,2.50
2019-01-28T03:30:20.268Z,2.40
2019-01-28T03:32:49.386Z,2.40
2019-01-28T03:35:18.543Z,2.40
2019-01-28T03:37:47.337Z,2.40
2019-01-28T03:40:20.423Z,2.40
2019-01-28T03:42:50.111Z,2.40
2019-01-28T03:45:20.726Z,2.40
2019-01-28T03:47:49.574Z,2.40
2019-01-28T03:50:19.025Z,2.40
2019-01-28T03:52:48.197Z,2.40
2019-01-28T03:55:16.959Z,2.40
2019-01-28T03:57:46.974Z,2.40
2019-01-28T04:00:20.898Z,2.40
2019-01-28T04:02:50.310Z,2.40
2019-01-28T04:05:19.551Z,2.40
2019-01-28T04:07:48.189Z,2.40
2019-01-28T04:10:19.045Z,2.40
2019-01-28T04:12:47.797Z,2.40
2019-01-28T04:15:18.914Z,2.40
2019-01-28T04:17:47.844Z,2.40
2019-01-28T04:20:17.187Z,2.40
2019-01-28T04:22:46.172Z,2.40
2019-01-28T04:25:15.020Z,2.40
2019-01-28T04:27:43.916Z,2.40
2019-01-28T04:30:18.210Z,2.30
2019-01-28T04:32:47.338Z,2.30
2019-01-28T04:35:16.071Z,2.20
2019-01-28T04:37:44.938Z,2.20
2019-01-28T04:40:15.684Z,2.20
2019-01-28T04:42:44.648Z,2.20
2019-01-28T04:45:20.802Z,2.20
2019-01-28T04:47:49.977Z,2.20
2019-01-28T04:50:22.157Z,2.20
2019-01-28T04:52:51.233Z,2.20
2019-01-28T04:55:20.027Z,2.20
2019-01-28T04:57:49.264Z,2.20
2019-01-28T05:00:23.029Z,2.30
2019-01-28T05:02:51.804Z,2.30
2019-01-28T05:05:21.054Z,2.30
2019-01-28T05:07:49.752Z,2.30
2019-01-28T05:10:20.016Z,2.30
2019-01-28T05:12:49.364Z,2.30
2019-01-28T05:15:19.985Z,2.30
2019-01-28T05:17:48.772Z,2.30
2019-01-28T05:20:23.595Z,2.30
2019-01-28T05:22:52.671Z,2.30
2019-01-28T05:25:21.639Z,2.30
2019-01-28T05:27:50.267Z,2.30
2019-01-28T05:30:21.115Z,2.20
2019-01-28T05:32:49.988Z,2.20
2019-01-28T05:35:19.660Z,2.20
2019-01-28T05:37:48.438Z,2.20
2019-01-28T05:40:19.295Z,2.20
2019-01-28T05:42:47.898Z,2.20
2019-01-28T05:45:17.953Z,2.10
2019-01-28T05:47:46.655Z,2.10
2019-01-28T05:50:16.037Z,2.00
2019-01-28T05:52:45.402Z,2.00
2019-01-28T05:55:16.320Z,2.00
2019-01-28T05:57:45.125Z,2.00
2019-01-28T06:00:23.947Z,2.10
2019-01-28T06:02:52.570Z,2.00
2019-01-28T06:05:21.522Z,2.00
2019-01-28T06:07:50.172Z,2.00
2019-01-28T06:10:18.777Z,2.00
2019-01-28T06:12:47.630Z,2.00
2019-01-28T06:15:18.300Z,2.00
2019-01-28T06:17:47.092Z,2.10
2019-01-28T06:20:18.223Z,2.10
2019-01-28T06:22:47.700Z,2.10
2019-01-28T06:25:16.697Z,2.10
2019-01-28T06:27:46.187Z,2.00
2019-01-28T06:30:24.775Z,2.10
2019-01-28T06:33:01.230Z,2.10
2019-01-28T06:35:30.842Z,2.10
2019-01-28T06:37:59.503Z,2.10
2019-01-28T06:40:31.159Z,2.00
2019-01-28T06:42:59.950Z,2.00
2019-01-28T06:45:28.935Z,2.00
2019-01-28T06:47:57.828Z,2.00
2019-01-28T06:50:27.028Z,2.00
2019-01-28T06:53:17.849Z,2.00
2019-01-28T06:55:47.025Z,2.00
2019-01-28T06:58:21.175Z,2.00
2019-01-28T07:00:49.831Z,2.00
2019-01-28T07:03:18.965Z,2.00
2019-01-28T07:05:47.665Z,2.00
2019-01-28T07:08:16.384Z,2.00
2019-01-28T07:10:45.264Z,2.00
2019-01-28T07:13:13.909Z,2.00
2019-01-28T07:15:43.048Z,2.00
2019-01-28T07:18:11.714Z,2.00
2019-01-28T07:20:40.486Z,2.00
2019-01-28T07:23:09.096Z,2.10
2019-01-28T07:25:37.994Z,2.00
2019-01-28T07:28:06.702Z,2.10
2019-01-28T07:30:36.211Z,2.10
2019-01-28T07:33:05.474Z,2.10
2019-01-28T07:35:34.674Z,2.10
2019-01-28T07:38:03.397Z,2.10
2019-01-28T07:40:32.106Z,2.10
2019-01-28T07:43:00.883Z,2.10
2019-01-28T07:45:35.064Z,2.20
2019-01-28T07:48:04.398Z,2.20
2019-01-28T07:50:33.073Z,2.20
2019-01-28T07:53:01.813Z,2.30
2019-01-28T07:55:30.466Z,2.30
2019-01-28T07:57:59.545Z,2.40
2019-01-28T08:00:29.988Z,2.40
2019-01-28T08:02:59.271Z,2.40
2019-01-28T08:05:28.466Z,2.50
2019-01-28T08:07:57.230Z,2.50
2019-01-28T08:10:26.389Z,2.50
2019-01-28T08:12:55.359Z,2.60
2019-01-28T08:15:26.869Z,2.60
2019-01-28T08:17:55.991Z,2.70
2019-01-28T08:20:25.385Z,2.80
2019-01-28T08:22:54.788Z,2.80
2019-01-28T08:25:23.736Z,2.90
2019-01-28T08:27:52.606Z,2.90
2019-01-28T08:30:35.526Z,3.00
2019-01-28T08:33:04.521Z,3.10
2019-01-28T08:35:34.719Z,3.20
2019-01-28T08:38:03.591Z,3.20
2019-01-28T08:40:32.522Z,3.30
2019-01-28T08:43:01.217Z,3.40
2019-01-28T08:45:30.360Z,3.50
2019-01-28T08:47:59.237Z,3.50
2019-01-28T08:50:29.309Z,3.60
2019-01-28T08:52:58.089Z,3.60
2019-01-28T08:55:28.596Z,3.70
2019-01-28T08:57:57.810Z,3.80
2019-01-28T09:00:32.023Z,4.00
2019-01-28T09:03:00.766Z,4.00
2019-01-28T09:05:29.804Z,4.10
2019-01-28T09:07:58.649Z,4.20
2019-01-28T09:10:31.630Z,4.20
2019-01-28T09:13:00.414Z,4.30
2019-01-28T09:15:29.312Z,4.40
2019-01-28T09:17:58.091Z,4.50
2019-01-28T09:20:31.997Z,4.50
2019-01-28T09:23:00.759Z,4.60
2019-01-28T09:25:29.722Z,4.60
2019-01-28T09:27:58.460Z,4.60
2019-01-28T09:30:29.564Z,4.70
2019-01-28T09:32:58.288Z,5.00
2019-01-28T09:35:27.115Z,5.00
2019-01-28T09:37:56.018Z,5.10
2019-01-28T09:40:27.764Z,5.00
2019-01-28T09:42:56.458Z,5.10
2019-01-28T09:45:30.774Z,5.00
2019-01-28T09:47:59.608Z,5.00
2019-01-28T09:50:28.597Z,5.00
2019-01-28T09:52:58.146Z,4.80
2019-01-28T09:55:27.389Z,4.80
2019-01-28T09:57:56.186Z,4.70
2019-01-28T10:00:31.064Z,4.70
2019-01-28T10:03:01.070Z,4.70
2019-01-28T10:05:31.587Z,4.60
2019-01-28T10:08:00.294Z,4.60
2019-01-28T10:10:29.590Z,4.60
2019-01-28T10:12:58.371Z,4.50
2019-01-28T10:15:29.231Z,4.50
2019-01-28T10:17:58.256Z,4.50
2019-01-28T10:20:35.990Z,4.50
2019-01-28T10:23:05.689Z,4.50
2019-01-28T10:25:35.042Z,4.60
2019-01-28T10:28:03.998Z,4.60
2019-01-28T10:30:35.729Z,4.60
2019-01-28T10:33:05.387Z,4.50
2019-01-28T10:35:35.568Z,4.50
2019-01-28T10:38:05.065Z,4.50
2019-01-28T10:40:36.929Z,4.40
2019-01-28T10:43:07.082Z,4.50
2019-01-28T10:45:36.238Z,4.40
2019-01-28T10:48:05.972Z,4.50
2019-01-28T10:50:34.965Z,4.50
2019-01-28T10:53:03.886Z,4.60
2019-01-28T10:55:32.790Z,4.50
2019-01-28T10:58:01.908Z,4.60
2019-01-28T11:00:36.557Z,4.50
2019-01-28T11:03:07.115Z,4.50
2019-01-28T11:05:35.901Z,4.50
2019-01-28T11:08:06.898Z,4.50
2019-01-28T11:10:35.660Z,4.50
2019-01-28T11:13:05.553Z,4.60
2019-01-28T11:15:34.352Z,4.50
2019-01-28T11:18:15.274Z,4.50
2019-01-28T11:20:44.761Z,4.60
2019-01-28T11:23:14.014Z,4.60
2019-01-28T11:25:42.829Z,4.50
2019-01-28T11:28:11.544Z,4.60
2019-01-28T11:30:44.955Z,4.60
2019-01-28T11:33:13.752Z,4.60
2019-01-28T11:35:43.171Z,4.60
2019-01-28T11:38:13.116Z,4.70
2019-01-28T11:40:42.325Z,4.60
2019-01-28T11:43:11.115Z,4.60
2019-01-28T11:45:45.854Z,4.60
2019-01-28T11:48:14.767Z,4.70
2019-01-28T11:50:43.515Z,4.80
2019-01-28T11:53:12.667Z,4.70
2019-01-28T11:55:41.481Z,4.80
2019-01-28T11:58:10.165Z,4.70
2019-01-28T12:00:58.111Z,4.70
2019-01-28T12:03:26.905Z,4.70
2019-01-28T12:05:55.549Z,4.60
2019-01-28T12:08:24.423Z,4.60
2019-01-28T12:10:53.323Z,4.60
2019-01-28T12:13:23.153Z,4.60
2019-01-28T12:15:51.714Z,4.70
2019-01-28T12:18:20.406Z,4.60
2019-01-28T12:20:53.724Z,4.60
2019-01-28T12:23:20.018Z,4.60
2019-01-28T12:25:49.013Z,4.60
2019-01-28T12:28:18.025Z,4.40
2019-01-28T12:30:47.228Z,4.30
2019-01-28T12:33:16.134Z,4.30
2019-01-28T12:35:44.881Z,4.30
2019-01-28T12:38:13.562Z,4.30
2019-01-28T12:40:42.308Z,4.30
2019-01-28T12:43:11.094Z,4.40
2019-01-28T12:45:40.070Z,4.30
2019-01-28T12:48:10.622Z,4.30
2019-01-28T12:50:39.288Z,4.20
2019-01-28T12:53:08.032Z,4.30
2019-01-28T12:55:36.705Z,4.30
2019-01-28T12:58:06.939Z,4.30
2019-01-28T13:00:37.761Z,4.50
2019-01-28T13:03:07.977Z,4.40
2019-01-28T13:05:37.397Z,4.50
2019-01-28T13:08:06.701Z,4.50
2019-01-28T13:10:35.714Z,4.60
2019-01-28T13:13:04.808Z,4.50
2019-01-28T13:15:34.477Z,4.50
2019-01-28T13:18:03.217Z,4.80
2019-01-28T13:20:32.252Z,4.70
2019-01-28T13:23:01.273Z,4.70
2019-01-28T13:25:32.086Z,4.80
2019-01-28T13:28:00.806Z,4.80
2019-01-28T13:30:38.149Z,5.00
2019-01-28T13:33:09.911Z,5.00
2019-01-28T13:35:38.839Z,4.80
2019-01-28T13:38:07.585Z,4.70
2019-01-28T13:40:36.373Z,4.50
2019-01-28T13:43:05.406Z,4.40
2019-01-28T13:45:34.257Z,4.40
2019-01-28T13:48:03.578Z,4.40
2019-01-28T13:50:32.285Z,4.30
2019-01-28T13:53:00.917Z,4.40
2019-01-28T13:55:29.805Z,4.40
2019-01-28T13:57:58.638Z,4.40
2019-01-28T14:00:29.427Z,4.50
2019-01-28T14:02:58.723Z,4.40
2019-01-28T14:05:27.818Z,4.50
2019-01-28T14:07:57.268Z,4.60
2019-01-28T14:10:26.258Z,4.50
2019-01-28T14:12:55.307Z,4.60
2019-01-28T14:15:26.852Z,4.70
2019-01-28T14:17:56.077Z,4.60
2019-01-28T14:20:27.544Z,4.60
2019-01-28T14:22:56.392Z,4.60
2019-01-28T14:25:25.383Z,4.60
2019-01-28T14:27:54.060Z,4.60
2019-01-28T14:30:37.341Z,4.50
2019-01-28T14:33:06.794Z,4.50
2019-01-28T14:35:35.788Z,4.50
2019-01-28T14:38:06.825Z,4.50
2019-01-28T14:40:36.107Z,4.50
2019-01-28T14:43:05.319Z,4.50
2019-01-28T14:45:34.455Z,4.60
2019-01-28T14:48:03.142Z,4.60
2019-01-28T14:50:33.995Z,4.60
2019-01-28T14:53:02.825Z,4.70
2019-01-28T14:55:31.916Z,4.70
2019-01-28T14:58:01.263Z,4.80
2019-01-28T15:00:35.789Z,4.80
2019-01-28T15:03:04.934Z,4.90
2019-01-28T15:05:34.073Z,5.00
2019-01-28T15:08:02.887Z,5.10
2019-01-28T15:10:31.700Z,5.20
2019-01-28T15:13:00.585Z,5.20
2019-01-28T15:15:31.982Z,5.30
2019-01-28T15:18:01.177Z,5.30
2019-01-28T15:20:29.922Z,5.30
2019-01-28T15:22:59.579Z,5.10
2019-01-28T15:25:28.560Z,5.10
2019-01-28T15:27:57.539Z,5.10
2019-01-28T15:30:30.913Z,5.00
2019-01-28T15:32:59.703Z,5.00
2019-01-28T15:35:28.476Z,4.90
2019-01-28T15:37:57.252Z,5.00
2019-01-28T15:40:28.918Z,5.00
2019-01-28T15:42:57.747Z,5.00
2019-01-28T15:45:32.371Z,5.10
2019-01-28T15:48:01.573Z,5.00
2019-01-28T15:50:30.390Z,5.00
2019-01-28T15:52:59.031Z,5.00
2019-01-28T15:55:34.030Z,4.90
2019-01-28T15:58:03.109Z,4.90
2019-01-28T16:00:34.081Z,4.80
2019-01-28T16:03:03.251Z,4.70
2019-01-28T16:05:32.006Z,4.70
2019-01-28T16:08:01.134Z,4.60
2019-01-28T16:10:29.866Z,4.50
2019-01-28T16:12:58.451Z,4.40
2019-01-28T16:15:38.760Z,4.40
2019-01-28T16:18:09.123Z,4.30
2019-01-28T16:20:38.789Z,4.30
2019-01-28T16:23:07.884Z,4.40
2019-01-28T16:25:36.718Z,4.40
2019-01-28T16:28:07.025Z,4.50
2019-01-28T16:30:36.416Z,4.50
2019-01-28T16:33:06.250Z,4.40
2019-01-28T16:35:35.546Z,4.40
2019-01-28T16:38:04.640Z,4.50
2019-01-28T16:40:34.098Z,4.40
2019-01-28T16:43:03.097Z,4.30
2019-01-28T16:45:32.081Z,4.30
2019-01-28T16:48:01.218Z,4.30
2019-01-28T16:50:37.645Z,4.20
2019-01-28T16:53:06.751Z,4.20
2019-01-28T16:55:35.500Z,4.20
2019-01-28T16:58:05.884Z,4.10
2019-01-28T17:00:37.381Z,4.00
2019-01-28T17:03:07.846Z,3.90
2019-01-28T17:05:36.885Z,3.90
2019-01-28T17:08:06.460Z,3.90
2019-01-28T17:10:35.248Z,3.90
2019-01-28T17:13:04.727Z,4.00
2019-01-28T17:15:33.437Z,4.10
2019-01-28T17:18:03.465Z,4.10
2019-01-28T17:20:35.513Z,4.20
2019-01-28T17:23:03.996Z,4.10
2019-01-28T17:25:44.277Z,4.10
2019-01-28T17:28:13.217Z,4.20
2019-01-28T17:30:47.079Z,4.10
2019-01-28T17:33:17.021Z,4.00
2019-01-28T17:35:45.789Z,4.00
2019-01-28T17:38:14.459Z,4.00
2019-01-28T17:40:43.690Z,4.00
2019-01-28T17:43:12.725Z,3.90
2019-01-28T17:45:41.406Z,3.70
2019-01-28T17:48:10.252Z,3.60
2019-01-28T17:50:43.612Z,3.60
2019-01-28T17:53:10.120Z,3.50
2019-01-28T17:55:39.316Z,3.60
2019-01-28T17:58:08.124Z,3.50
2019-01-28T18:00:42.072Z,3.60
2019-01-28T18:03:10.789Z,3.60
2019-01-28T18:05:39.687Z,3.60
2019-01-28T18:08:08.856Z,3.70
2019-01-28T18:10:37.977Z,3.70
2019-01-28T18:13:06.954Z,3.60
2019-01-28T18:15:35.856Z,3.70
2019-01-28T18:18:06.310Z,3.70
2019-01-28T18:20:35.026Z,3.60
2019-01-28T18:23:03.969Z,3.70
2019-01-28T18:25:36.703Z,3.70
2019-01-28T18:28:06.017Z,3.70
2019-01-28T18:30:46.763Z,3.60
2019-01-28T18:33:16.203Z,3.60
2019-01-28T18:35:45.364Z,3.50
2019-01-28T18:38:14.500Z,3.40
2019-01-28T18:40:43.696Z,3.20
2019-01-28T18:43:12.778Z,3.20
2019-01-28T18:45:41.673Z,3.10
2019-01-28T18:48:10.727Z,3.10
2019-01-28T18:50:39.597Z,3.10
2019-01-28T18:53:08.305Z,3.10
2019-01-28T18:55:37.547Z,3.10
2019-01-28T18:58:06.387Z,2.90
2019-01-28T19:00:35.656Z,2.90
2019-01-28T19:03:05.300Z,2.70
2019-01-28T19:05:38.686Z,2.60
2019-01-28T19:08:09.219Z,2.50
2019-01-28T19:10:39.617Z,2.40
2019-01-28T19:13:09.887Z,2.30
2019-01-28T19:15:42.820Z,2.30
2019-01-28T19:18:25.484Z,2.20
2019-01-28T19:21:07.825Z,2.20
2019-01-28T19:23:32.906Z,2.10
2019-01-28T19:26:01.492Z,2.10
2019-01-28T19:28:30.130Z,2.10
2019-01-28T19:30:58.877Z,2.10
2019-01-28T19:33:27.538Z,2.10
2019-01-28T19:35:56.126Z,2.10
2019-01-28T19:38:24.908Z,2.10
2019-01-28T19:40:53.664Z,2.00
2019-01-28T19:43:24.304Z,2.00
2019-01-28T19:45:53.066Z,2.00
2019-01-28T19:48:21.783Z,1.90
2019-01-28T19:50:50.869Z,2.00
2019-01-28T19:53:19.497Z,2.10
2019-01-28T19:55:48.619Z,2.10
2019-01-28T19:58:17.408Z,2.30
2019-01-28T20:00:46.194Z,2.30
2019-01-28T20:03:15.218Z,2.30
2019-01-28T20:05:44.281Z,2.20
2019-01-28T20:08:15.051Z,2.10
2019-01-28T20:10:45.284Z,2.10
2019-01-28T20:13:13.960Z,2.10
2019-01-28T20:15:42.603Z,2.20
2019-01-28T20:18:11.487Z,2.20
2019-01-28T20:20:40.274Z,2.20
2019-01-28T20:23:09.367Z,2.30
2019-01-28T20:25:38.202Z,2.30
2019-01-28T20:28:07.082Z,2.20
2019-01-28T20:30:35.842Z,2.10
2019-01-28T20:33:05.122Z,2.00
2019-01-28T20:35:34.755Z,1.90
2019-01-28T20:38:03.774Z,1.90
2019-01-28T20:40:32.748Z,1.80
2019-01-28T20:43:01.506Z,1.80
2019-01-28T20:45:30.292Z,1.80
2019-01-28T20:47:59.215Z,1.70
2019-01-28T20:50:30.034Z,1.80
2019-01-28T20:52:58.829Z,1.80
2019-01-28T20:55:27.618Z,1.80
2019-01-28T20:57:56.683Z,1.70
2019-01-28T21:00:29.345Z,1.60
2019-01-28T21:02:58.108Z,1.60
2019-01-28T21:05:27.225Z,1.50
2019-01-28T21:07:56.379Z,1.40
2019-01-28T21:10:25.230Z,1.40
2019-01-28T21:12:54.424Z,1.40
2019-01-28T21:15:24.144Z,1.40
2019-01-28T21:17:52.960Z,1.30
2019-01-28T21:20:23.098Z,1.30
2019-01-28T21:22:51.963Z,1.30
2019-01-28T21:25:27.423Z,1.30
2019-01-28T21:27:56.802Z,1.20
2019-01-28T21:30:32.051Z,1.10
2019-01-28T21:33:00.895Z,1.10
2019-01-28T21:35:47.833Z,1.00
2019-01-28T21:38:18.175Z,1.00
2019-01-28T21:40:47.019Z,1.00
2019-01-28T21:43:15.725Z,1.00
2019-01-28T21:45:44.579Z,1.00
2019-01-28T21:48:13.229Z,1.20
2019-01-28T21:50:41.959Z,1.30
2019-01-28T21:53:10.754Z,1.40
2019-01-28T21:55:39.446Z,1.40
2019-01-28T21:58:08.130Z,1.30
2019-01-28T22:00:36.824Z,1.30
2019-01-28T22:03:05.809Z,1.30
2019-01-28T22:05:34.680Z,1.30
2019-01-28T22:08:03.290Z,1.40
2019-01-28T22:10:32.046Z,1.40
2019-01-28T22:13:00.935Z,1.40
2019-01-28T22:15:29.573Z,1.30
2019-01-28T22:17:59.481Z,1.30
2019-01-28T22:20:28.219Z,1.30
2019-01-28T22:22:57.456Z,1.30
2019-01-28T22:25:26.066Z,1.30
2019-01-28T22:27:57.292Z,1.30
2019-01-28T22:30:25.325Z,1.40
2019-01-28T22:32:54.404Z,1.30
2019-01-28T22:35:23.037Z,1.40
2019-01-28T22:37:51.682Z,1.60
2019-01-28T22:40:20.975Z,1.70
2019-01-28T22:42:50.088Z,1.70
2019-01-28T22:45:22.410Z,1.70
2019-01-28T22:47:51.480Z,1.60
2019-01-28T22:50:21.442Z,1.50
2019-01-28T22:52:50.227Z,1.40
2019-01-28T22:55:21.205Z,1.30
2019-01-28T22:57:50.274Z,1.20
2019-01-28T23:00:42.184Z,1.20
2019-01-28T23:03:12.142Z,1.20
2019-01-28T23:05:40.805Z,1.10
2019-01-28T23:08:10.073Z,1.10
2019-01-28T23:10:38.945Z,1.20
2019-01-28T23:13:07.872Z,1.20
2019-01-28T23:15:36.988Z,1.30
2019-01-28T23:18:06.648Z,1.40
2019-01-28T23:20:35.684Z,1.50
2019-01-28T23:23:05.169Z,1.60
2019-01-28T23:25:34.152Z,1.50
2019-01-28T23:28:03.171Z,1.50
2019-01-28T23:30:31.917Z,1.60
2019-01-28T23:33:00.713Z,1.60
2019-01-28T23:35:29.543Z,1.70
2019-01-28T23:37:58.617Z,1.70
2019-01-28T23:40:27.607Z,1.70
2019-01-28T23:42:56.824Z,1.70
2019-01-28T23:45:25.535Z,1.70
2019-01-28T23:47:54.252Z,1.60
2019-01-28T23:50:23.387Z,1.60
2019-01-28T23:52:52.226Z,1.60
2019-01-28T23:55:20.916Z,1.60
2019-01-28T23:57:56.642Z,1.60
